sensor_id;sensor_type;location;lat;lon;timestamp;temperature;humidity
17774;DHT22;9011;33.236;-97.118;2022-08-01T00:01:56;39.20;76.10
17774;DHT22;9011;33.236;-97.118;2022-08-01T00:04:24;39.20;76.10
17774;DHT22;9011;33.236;-97.118;2022-08-01T00:06:52;39.20;76.00
17774;DHT22;9011;33.236;-97.118;2022-08-01T00:09:21;39.10;76.60
17774;DHT22;9011;33.236;-97.118;2022-08-01T00:11:49;38.90;76.60
17774;DHT22;9011;33.236;-97.118;2022-08-01T00:14:19;39.00;77.00
17774;DHT22;9011;33.236;-97.118;2022-08-01T00:16:47;39.10;76.30
17774;DHT22;9011;33.236;-97.118;2022-08-01T00:19:16;39.10;76.20
17774;DHT22;9011;33.236;-97.118;2022-08-01T00:21:44;39.20;76.30
17774;DHT22;9011;33.236;-97.118;2022-08-01T00:24:13;39.20;76.90
17774;DHT22;9011;33.236;-97.118;2022-08-01T00:26:41;38.80;77.10
17774;DHT22;9011;33.236;-97.118;2022-08-01T00:29:10;38.70;76.80
17774;DHT22;9011;33.236;-97.118;2022-08-01T00:31:40;38.60;76.50
17774;DHT22;9011;33.236;-97.118;2022-08-01T00:34:08;38.70;77.00
17774;DHT22;9011;33.236;-97.118;2022-08-01T00:36:37;38.50;77.50
17774;DHT22;9011;33.236;-97.118;2022-08-01T00:39:06;38.50;78.10
17774;DHT22;9011;33.236;-97.118;2022-08-01T00:41:34;38.40;77.40
17774;DHT22;9011;33.236;-97.118;2022-08-01T00:44:04;38.30;76.80
17774;DHT22;9011;33.236;-97.118;2022-08-01T00:46:32;38.30;76.80
17774;DHT22;9011;33.236;-97.118;2022-08-01T00:49:03;38.30;76.40
17774;DHT22;9011;33.236;-97.118;2022-08-01T00:51:31;38.20;76.70
17774;DHT22;9011;33.236;-97.118;2022-08-01T00:54:00;37.90;77.70
17774;DHT22;9011;33.236;-97.118;2022-08-01T00:56:28;37.90;79.00
17774;DHT22;9011;33.236;-97.118;2022-08-01T00:58:57;38.00;77.80
17774;DHT22;9011;33.236;-97.118;2022-08-01T01:01:26;38.00;77.30
17774;DHT22;9011;33.236;-97.118;2022-08-01T01:03:54;37.90;77.60
17774;DHT22;9011;33.236;-97.118;2022-08-01T01:06:30;38.00;77.20
17774;DHT22;9011;33.236;-97.118;2022-08-01T01:09:14;37.70;77.60
17774;DHT22;9011;33.236;-97.118;2022-08-01T01:11:47;37.90;77.30
17774;DHT22;9011;33.236;-97.118;2022-08-01T01:14:25;37.90;77.20
17774;DHT22;9011;33.236;-97.118;2022-08-01T01:16:56;37.70;77.60
17774;DHT22;9011;33.236;-97.118;2022-08-01T01:19:30;37.60;77.60
17774;DHT22;9011;33.236;-97.118;2022-08-01T01:22:16;37.30;78.00
17774;DHT22;9011;33.236;-97.118;2022-08-01T01:27:42;37.10;78.20
17774;DHT22;9011;33.236;-97.118;2022-08-01T01:30:16;37.10;78.30
17774;DHT22;9011;33.236;-97.118;2022-08-01T01:32:46;37.00;78.80
17774;DHT22;9011;33.236;-97.118;2022-08-01T01:35:21;36.90;79.00
17774;DHT22;9011;33.236;-97.118;2022-08-01T01:37:55;36.90;78.90
17774;DHT22;9011;33.236;-97.118;2022-08-01T01:40:24;36.90;78.90
17774;DHT22;9011;33.236;-97.118;2022-08-01T01:42:55;36.60;79.10
17774;DHT22;9011;33.236;-97.118;2022-08-01T01:45:27;36.50;79.20
17774;DHT22;9011;33.236;-97.118;2022-08-01T01:47:57;36.50;79.80
17774;DHT22;9011;33.236;-97.118;2022-08-01T01:50:26;36.40;80.30
17774;DHT22;9011;33.236;-97.118;2022-08-01T01:52:56;36.30;80.90
17774;DHT22;9011;33.236;-97.118;2022-08-01T01:55:26;36.30;81.00
17774;DHT22;9011;33.236;-97.118;2022-08-01T01:57:56;36.10;81.80
17774;DHT22;9011;33.236;-97.118;2022-08-01T02:00:27;36.10;81.90
17774;DHT22;9011;33.236;-97.118;2022-08-01T02:02:57;36.00;82.70
17774;DHT22;9011;33.236;-97.118;2022-08-01T02:05:26;35.90;82.60
17774;DHT22;9011;33.236;-97.118;2022-08-01T02:07:57;35.80;83.10
17774;DHT22;9011;33.236;-97.118;2022-08-01T02:10:26;35.60;83.70
17774;DHT22;9011;33.236;-97.118;2022-08-01T02:12:58;35.60;84.00
17774;DHT22;9011;33.236;-97.118;2022-08-01T02:15:30;35.60;83.70
17774;DHT22;9011;33.236;-97.118;2022-08-01T02:18:00;35.40;84.20
17774;DHT22;9011;33.236;-97.118;2022-08-01T02:20:29;35.50;84.10
17774;DHT22;9011;33.236;-97.118;2022-08-01T02:23:01;35.30;84.00
17774;DHT22;9011;33.236;-97.118;2022-08-01T02:25:36;35.40;83.70
17774;DHT22;9011;33.236;-97.118;2022-08-01T02:28:09;35.30;83.60
17774;DHT22;9011;33.236;-97.118;2022-08-01T02:30:43;35.30;83.50
17774;DHT22;9011;33.236;-97.118;2022-08-01T02:33:16;35.30;83.80
17774;DHT22;9011;33.236;-97.118;2022-08-01T02:35:49;35.40;83.60
17774;DHT22;9011;33.236;-97.118;2022-08-01T02:38:22;35.40;83.60
17774;DHT22;9011;33.236;-97.118;2022-08-01T02:40:53;35.40;83.60
17774;DHT22;9011;33.236;-97.118;2022-08-01T02:43:26;35.50;83.70
17774;DHT22;9011;33.236;-97.118;2022-08-01T02:46:00;35.40;83.70
17774;DHT22;9011;33.236;-97.118;2022-08-01T02:48:30;35.30;84.30
17774;DHT22;9011;33.236;-97.118;2022-08-01T02:51:02;35.30;84.00
17774;DHT22;9011;33.236;-97.118;2022-08-01T02:53:33;35.30;84.10
17774;DHT22;9011;33.236;-97.118;2022-08-01T02:56:05;35.30;83.90
17774;DHT22;9011;33.236;-97.118;2022-08-01T02:58:36;35.40;83.80
17774;DHT22;9011;33.236;-97.118;2022-08-01T03:01:07;35.30;84.00
17774;DHT22;9011;33.236;-97.118;2022-08-01T03:03:37;35.30;83.90
17774;DHT22;9011;33.236;-97.118;2022-08-01T03:06:06;35.30;83.90
17774;DHT22;9011;33.236;-97.118;2022-08-01T03:08:36;35.20;84.00
17774;DHT22;9011;33.236;-97.118;2022-08-01T03:11:06;35.30;83.50
17774;DHT22;9011;33.236;-97.118;2022-08-01T03:13:35;35.20;83.80
17774;DHT22;9011;33.236;-97.118;2022-08-01T03:16:07;35.20;83.70
17774;DHT22;9011;33.236;-97.118;2022-08-01T03:18:36;35.10;84.10
17774;DHT22;9011;33.236;-97.118;2022-08-01T03:21:07;35.10;84.20
17774;DHT22;9011;33.236;-97.118;2022-08-01T03:23:37;35.10;84.10
17774;DHT22;9011;33.236;-97.118;2022-08-01T03:26:06;35.10;84.10
17774;DHT22;9011;33.236;-97.118;2022-08-01T03:28:36;35.00;84.30
17774;DHT22;9011;33.236;-97.118;2022-08-01T03:31:07;34.90;84.50
17774;DHT22;9011;33.236;-97.118;2022-08-01T03:33:36;34.80;84.60
17774;DHT22;9011;33.236;-97.118;2022-08-01T03:36:05;34.80;84.50
17774;DHT22;9011;33.236;-97.118;2022-08-01T03:38:38;34.80;84.40
17774;DHT22;9011;33.236;-97.118;2022-08-01T03:41:11;34.80;84.40
17774;DHT22;9011;33.236;-97.118;2022-08-01T03:43:45;34.80;84.50
17774;DHT22;9011;33.236;-97.118;2022-08-01T03:46:18;34.80;84.90
17774;DHT22;9011;33.236;-97.118;2022-08-01T03:48:50;34.80;85.10
17774;DHT22;9011;33.236;-97.118;2022-08-01T03:51:19;34.50;85.60
17774;DHT22;9011;33.236;-97.118;2022-08-01T03:53:50;34.40;86.10
17774;DHT22;9011;33.236;-97.118;2022-08-01T03:56:22;34.50;86.30
17774;DHT22;9011;33.236;-97.118;2022-08-01T03:58:51;34.40;86.40
17774;DHT22;9011;33.236;-97.118;2022-08-01T04:01:21;34.30;86.90
17774;DHT22;9011;33.236;-97.118;2022-08-01T04:03:50;34.40;86.70
17774;DHT22;9011;33.236;-97.118;2022-08-01T04:06:19;34.40;86.70
17774;DHT22;9011;33.236;-97.118;2022-08-01T04:08:47;34.40;87.00
17774;DHT22;9011;33.236;-97.118;2022-08-01T04:11:25;34.30;86.90
17774;DHT22;9011;33.236;-97.118;2022-08-01T04:13:54;34.30;86.90
17774;DHT22;9011;33.236;-97.118;2022-08-01T04:16:25;34.30;87.00
17774;DHT22;9011;33.236;-97.118;2022-08-01T04:18:53;34.30;87.00
17774;DHT22;9011;33.236;-97.118;2022-08-01T04:21:24;34.30;87.30
17774;DHT22;9011;33.236;-97.118;2022-08-01T04:23:55;34.30;87.40
17774;DHT22;9011;33.236;-97.118;2022-08-01T04:26:26;34.20;87.70
17774;DHT22;9011;33.236;-97.118;2022-08-01T04:28:55;34.30;87.50
17774;DHT22;9011;33.236;-97.118;2022-08-01T04:31:26;34.30;87.50
17774;DHT22;9011;33.236;-97.118;2022-08-01T04:33:56;34.30;87.80
17774;DHT22;9011;33.236;-97.118;2022-08-01T04:36:26;34.20;88.00
17774;DHT22;9011;33.236;-97.118;2022-08-01T04:38:59;34.20;88.00
17774;DHT22;9011;33.236;-97.118;2022-08-01T04:41:29;34.20;88.10
17774;DHT22;9011;33.236;-97.118;2022-08-01T04:43:58;34.10;88.10
17774;DHT22;9011;33.236;-97.118;2022-08-01T04:46:29;34.20;88.20
17774;DHT22;9011;33.236;-97.118;2022-08-01T04:48:58;34.00;88.20
17774;DHT22;9011;33.236;-97.118;2022-08-01T04:51:26;34.00;88.30
17774;DHT22;9011;33.236;-97.118;2022-08-01T04:53:55;34.10;88.00
17774;DHT22;9011;33.236;-97.118;2022-08-01T04:56:24;34.10;88.00
17774;DHT22;9011;33.236;-97.118;2022-08-01T04:58:52;33.90;87.90
17774;DHT22;9011;33.236;-97.118;2022-08-01T05:01:35;33.90;88.00
17774;DHT22;9011;33.236;-97.118;2022-08-01T05:04:04;33.90;88.00
17774;DHT22;9011;33.236;-97.118;2022-08-01T05:06:32;33.80;88.00
17774;DHT22;9011;33.236;-97.118;2022-08-01T05:09:01;33.80;88.10
17774;DHT22;9011;33.236;-97.118;2022-08-01T05:11:29;33.80;88.00
17774;DHT22;9011;33.236;-97.118;2022-08-01T05:13:57;33.80;87.90
17774;DHT22;9011;33.236;-97.118;2022-08-01T05:16:25;33.80;88.00
17774;DHT22;9011;33.236;-97.118;2022-08-01T05:18:55;33.70;87.90
17774;DHT22;9011;33.236;-97.118;2022-08-01T05:21:24;33.80;87.70
17774;DHT22;9011;33.236;-97.118;2022-08-01T05:23:52;33.70;87.60
17774;DHT22;9011;33.236;-97.118;2022-08-01T05:26:20;33.80;87.80
17774;DHT22;9011;33.236;-97.118;2022-08-01T05:28:49;33.60;87.50
17774;DHT22;9011;33.236;-97.118;2022-08-01T05:31:17;33.60;87.20
17774;DHT22;9011;33.236;-97.118;2022-08-01T05:33:45;33.60;87.30
17774;DHT22;9011;33.236;-97.118;2022-08-01T05:36:15;33.70;86.90
17774;DHT22;9011;33.236;-97.118;2022-08-01T05:38:43;33.70;86.80
17774;DHT22;9011;33.236;-97.118;2022-08-01T05:41:12;33.70;86.50
17774;DHT22;9011;33.236;-97.118;2022-08-01T05:43:40;33.70;86.40
17774;DHT22;9011;33.236;-97.118;2022-08-01T05:46:08;33.60;86.30
17774;DHT22;9011;33.236;-97.118;2022-08-01T05:48:37;33.70;86.30
17774;DHT22;9011;33.236;-97.118;2022-08-01T05:51:05;33.60;86.30
17774;DHT22;9011;33.236;-97.118;2022-08-01T05:53:35;33.60;86.10
17774;DHT22;9011;33.236;-97.118;2022-08-01T05:56:03;33.60;86.10
17774;DHT22;9011;33.236;-97.118;2022-08-01T05:58:32;33.60;86.10
17774;DHT22;9011;33.236;-97.118;2022-08-01T06:01:00;33.60;86.10
17774;DHT22;9011;33.236;-97.118;2022-08-01T06:03:28;33.60;86.20
17774;DHT22;9011;33.236;-97.118;2022-08-01T06:05:58;33.60;86.30
17774;DHT22;9011;33.236;-97.118;2022-08-01T06:08:26;33.60;86.30
17774;DHT22;9011;33.236;-97.118;2022-08-01T06:10:57;33.60;86.10
17774;DHT22;9011;33.236;-97.118;2022-08-01T06:13:25;33.60;86.20
17774;DHT22;9011;33.236;-97.118;2022-08-01T06:15:53;33.40;86.20
17774;DHT22;9011;33.236;-97.118;2022-08-01T06:18:21;33.50;86.30
17774;DHT22;9011;33.236;-97.118;2022-08-01T06:20:50;33.40;86.20
17774;DHT22;9011;33.236;-97.118;2022-08-01T06:23:19;33.40;86.20
17774;DHT22;9011;33.236;-97.118;2022-08-01T06:25:48;33.50;86.10
17774;DHT22;9011;33.236;-97.118;2022-08-01T06:28:17;33.50;86.00
17774;DHT22;9011;33.236;-97.118;2022-08-01T06:30:46;33.40;86.00
17774;DHT22;9011;33.236;-97.118;2022-08-01T06:33:14;33.30;86.00
17774;DHT22;9011;33.236;-97.118;2022-08-01T06:35:42;33.30;86.10
17774;DHT22;9011;33.236;-97.118;2022-08-01T06:38:11;33.30;86.10
17774;DHT22;9011;33.236;-97.118;2022-08-01T06:40:39;33.30;86.10
17774;DHT22;9011;33.236;-97.118;2022-08-01T06:43:07;33.30;85.70
17774;DHT22;9011;33.236;-97.118;2022-08-01T06:45:39;33.20;86.00
17774;DHT22;9011;33.236;-97.118;2022-08-01T06:48:07;33.20;86.00
17774;DHT22;9011;33.236;-97.118;2022-08-01T06:50:35;33.10;86.00
17774;DHT22;9011;33.236;-97.118;2022-08-01T06:53:04;33.00;85.90
17774;DHT22;9011;33.236;-97.118;2022-08-01T06:55:32;33.00;85.90
17774;DHT22;9011;33.236;-97.118;2022-08-01T06:58:01;33.00;85.70
17774;DHT22;9011;33.236;-97.118;2022-08-01T07:00:29;33.00;85.80
17774;DHT22;9011;33.236;-97.118;2022-08-01T07:02:59;33.00;85.70
17774;DHT22;9011;33.236;-97.118;2022-08-01T07:05:27;33.00;85.20
17774;DHT22;9011;33.236;-97.118;2022-08-01T07:07:57;32.90;85.40
17774;DHT22;9011;33.236;-97.118;2022-08-01T07:10:25;32.80;85.30
17774;DHT22;9011;33.236;-97.118;2022-08-01T07:12:54;32.90;85.40
17774;DHT22;9011;33.236;-97.118;2022-08-01T07:15:22;32.80;85.40
17774;DHT22;9011;33.236;-97.118;2022-08-01T07:17:52;32.80;85.80
17774;DHT22;9011;33.236;-97.118;2022-08-01T07:20:23;32.80;86.50
17774;DHT22;9011;33.236;-97.118;2022-08-01T07:22:51;32.70;87.50
17774;DHT22;9011;33.236;-97.118;2022-08-01T07:25:19;32.60;88.30
17774;DHT22;9011;33.236;-97.118;2022-08-01T07:27:48;32.60;88.70
17774;DHT22;9011;33.236;-97.118;2022-08-01T07:30:16;32.50;89.30
17774;DHT22;9011;33.236;-97.118;2022-08-01T07:32:44;32.50;89.50
17774;DHT22;9011;33.236;-97.118;2022-08-01T07:35:13;32.40;90.00
17774;DHT22;9011;33.236;-97.118;2022-08-01T07:37:42;32.30;90.20
17774;DHT22;9011;33.236;-97.118;2022-08-01T07:40:11;32.30;90.40
17774;DHT22;9011;33.236;-97.118;2022-08-01T07:42:39;32.20;90.60
17774;DHT22;9011;33.236;-97.118;2022-08-01T07:45:10;32.00;90.90
17774;DHT22;9011;33.236;-97.118;2022-08-01T07:47:39;32.00;91.10
17774;DHT22;9011;33.236;-97.118;2022-08-01T07:50:08;31.90;91.30
17774;DHT22;9011;33.236;-97.118;2022-08-01T07:52:36;31.90;91.40
17774;DHT22;9011;33.236;-97.118;2022-08-01T07:55:08;31.90;91.60
17774;DHT22;9011;33.236;-97.118;2022-08-01T07:57:36;31.70;91.80
17774;DHT22;9011;33.236;-97.118;2022-08-01T08:00:06;31.60;92.20
17774;DHT22;9011;33.236;-97.118;2022-08-01T08:02:35;31.50;92.60
17774;DHT22;9011;33.236;-97.118;2022-08-01T08:05:04;31.50;92.50
17774;DHT22;9011;33.236;-97.118;2022-08-01T08:07:33;31.50;92.70
17774;DHT22;9011;33.236;-97.118;2022-08-01T08:10:03;31.40;92.90
17774;DHT22;9011;33.236;-97.118;2022-08-01T08:12:33;31.30;93.10
17774;DHT22;9011;33.236;-97.118;2022-08-01T08:15:01;31.30;93.20
17774;DHT22;9011;33.236;-97.118;2022-08-01T08:17:32;31.30;93.40
17774;DHT22;9011;33.236;-97.118;2022-08-01T08:20:00;31.20;93.60
17774;DHT22;9011;33.236;-97.118;2022-08-01T08:22:28;31.20;93.60
17774;DHT22;9011;33.236;-97.118;2022-08-01T08:24:57;31.20;93.80
17774;DHT22;9011;33.236;-97.118;2022-08-01T08:27:25;31.20;94.00
17774;DHT22;9011;33.236;-97.118;2022-08-01T08:29:55;31.20;94.20
17774;DHT22;9011;33.236;-97.118;2022-08-01T08:32:23;31.10;94.40
17774;DHT22;9011;33.236;-97.118;2022-08-01T08:34:51;31.20;94.50
17774;DHT22;9011;33.236;-97.118;2022-08-01T08:37:20;31.20;94.70
17774;DHT22;9011;33.236;-97.118;2022-08-01T08:39:48;31.10;94.80
17774;DHT22;9011;33.236;-97.118;2022-08-01T08:42:16;31.00;95.10
17774;DHT22;9011;33.236;-97.118;2022-08-01T08:44:46;31.00;95.40
17774;DHT22;9011;33.236;-97.118;2022-08-01T08:47:16;31.00;95.50
17774;DHT22;9011;33.236;-97.118;2022-08-01T08:49:45;31.00;95.70
17774;DHT22;9011;33.236;-97.118;2022-08-01T08:52:15;30.90;95.90
17774;DHT22;9011;33.236;-97.118;2022-08-01T08:54:46;30.80;96.20
17774;DHT22;9011;33.236;-97.118;2022-08-01T08:57:15;30.90;96.40
17774;DHT22;9011;33.236;-97.118;2022-08-01T08:59:44;30.80;96.60
17774;DHT22;9011;33.236;-97.118;2022-08-01T09:02:13;30.90;96.60
17774;DHT22;9011;33.236;-97.118;2022-08-01T09:04:43;30.80;96.80
17774;DHT22;9011;33.236;-97.118;2022-08-01T09:07:11;30.80;97.20
17774;DHT22;9011;33.236;-97.118;2022-08-01T09:09:40;30.80;97.40
17774;DHT22;9011;33.236;-97.118;2022-08-01T09:12:09;30.70;97.70
17774;DHT22;9011;33.236;-97.118;2022-08-01T09:14:45;30.70;97.80
17774;DHT22;9011;33.236;-97.118;2022-08-01T09:17:13;30.70;98.10
17774;DHT22;9011;33.236;-97.118;2022-08-01T09:19:45;30.70;98.20
17774;DHT22;9011;33.236;-97.118;2022-08-01T09:22:15;30.70;98.20
17774;DHT22;9011;33.236;-97.118;2022-08-01T09:25:02;30.80;98.50
17774;DHT22;9011;33.236;-97.118;2022-08-01T09:27:31;30.70;98.70
17774;DHT22;9011;33.236;-97.118;2022-08-01T09:30:11;30.70;98.90
17774;DHT22;9011;33.236;-97.118;2022-08-01T09:32:56;30.60;99.10
17774;DHT22;9011;33.236;-97.118;2022-08-01T09:35:29;30.70;99.50
17774;DHT22;9011;33.236;-97.118;2022-08-01T09:38:14;30.60;99.50
17774;DHT22;9011;33.236;-97.118;2022-08-01T09:40:47;30.60;99.90
17774;DHT22;9011;33.236;-97.118;2022-08-01T09:43:16;30.50;99.90
17774;DHT22;9011;33.236;-97.118;2022-08-01T09:45:44;30.50;99.90
17774;DHT22;9011;33.236;-97.118;2022-08-01T09:48:12;30.50;99.90
17774;DHT22;9011;33.236;-97.118;2022-08-01T09:50:45;30.50;99.90
17774;DHT22;9011;33.236;-97.118;2022-08-01T09:53:14;30.50;99.90
17774;DHT22;9011;33.236;-97.118;2022-08-01T09:55:43;30.40;99.90
17774;DHT22;9011;33.236;-97.118;2022-08-01T09:58:12;30.40;99.90
17774;DHT22;9011;33.236;-97.118;2022-08-01T10:00:40;30.40;99.90
17774;DHT22;9011;33.236;-97.118;2022-08-01T10:03:20;30.40;99.90
17774;DHT22;9011;33.236;-97.118;2022-08-01T10:05:50;30.40;99.90
17774;DHT22;9011;33.236;-97.118;2022-08-01T10:08:20;30.50;99.90
17774;DHT22;9011;33.236;-97.118;2022-08-01T10:11:07;30.40;99.90
17774;DHT22;9011;33.236;-97.118;2022-08-01T10:13:36;30.30;99.90
17774;DHT22;9011;33.236;-97.118;2022-08-01T10:16:05;30.30;99.90
17774;DHT22;9011;33.236;-97.118;2022-08-01T10:18:35;30.20;99.90
17774;DHT22;9011;33.236;-97.118;2022-08-01T10:21:06;30.30;99.90
17774;DHT22;9011;33.236;-97.118;2022-08-01T10:23:36;30.30;99.90
17774;DHT22;9011;33.236;-97.118;2022-08-01T10:26:05;30.20;99.90
17774;DHT22;9011;33.236;-97.118;2022-08-01T10:28:35;30.30;99.90
17774;DHT22;9011;33.236;-97.118;2022-08-01T10:31:04;30.30;99.90
17774;DHT22;9011;33.236;-97.118;2022-08-01T10:33:33;30.20;99.90
17774;DHT22;9011;33.236;-97.118;2022-08-01T10:36:03;30.20;99.90
17774;DHT22;9011;33.236;-97.118;2022-08-01T10:38:34;30.20;99.90
17774;DHT22;9011;33.236;-97.118;2022-08-01T10:41:03;30.20;99.90
17774;DHT22;9011;33.236;-97.118;2022-08-01T10:43:31;30.20;99.90
17774;DHT22;9011;33.236;-97.118;2022-08-01T10:46:00;30.10;99.90
17774;DHT22;9011;33.236;-97.118;2022-08-01T10:48:33;30.10;99.90
17774;DHT22;9011;33.236;-97.118;2022-08-01T10:51:04;30.10;99.90
17774;DHT22;9011;33.236;-97.118;2022-08-01T10:53:35;30.10;99.90
17774;DHT22;9011;33.236;-97.118;2022-08-01T10:56:04;30.10;99.90
17774;DHT22;9011;33.236;-97.118;2022-08-01T10:58:38;30.20;99.90
17774;DHT22;9011;33.236;-97.118;2022-08-01T11:01:23;30.00;99.90
17774;DHT22;9011;33.236;-97.118;2022-08-01T11:04:03;30.00;99.90
17774;DHT22;9011;33.236;-97.118;2022-08-01T11:06:43;30.00;99.90
17774;DHT22;9011;33.236;-97.118;2022-08-01T11:09:29;30.00;99.90
17774;DHT22;9011;33.236;-97.118;2022-08-01T11:12:02;29.90;99.90
17774;DHT22;9011;33.236;-97.118;2022-08-01T11:14:33;29.90;99.90
17774;DHT22;9011;33.236;-97.118;2022-08-01T11:20:15;29.90;99.90
17774;DHT22;9011;33.236;-97.118;2022-08-01T11:26:22;29.90;99.90
17774;DHT22;9011;33.236;-97.118;2022-08-01T11:29:13;29.90;99.90
17774;DHT22;9011;33.236;-97.118;2022-08-01T11:31:41;29.80;99.90
17774;DHT22;9011;33.236;-97.118;2022-08-01T11:34:10;29.80;99.90
17774;DHT22;9011;33.236;-97.118;2022-08-01T11:36:38;29.80;99.90
17774;DHT22;9011;33.236;-97.118;2022-08-01T11:39:16;29.90;99.90
17774;DHT22;9011;33.236;-97.118;2022-08-01T11:41:48;29.90;99.90
17774;DHT22;9011;33.236;-97.118;2022-08-01T11:44:21;29.70;99.90
17774;DHT22;9011;33.236;-97.118;2022-08-01T11:47:02;29.70;99.90
17774;DHT22;9011;33.236;-97.118;2022-08-01T11:49:49;29.70;99.90
17774;DHT22;9011;33.236;-97.118;2022-08-01T11:52:25;29.80;99.90
17774;DHT22;9011;33.236;-97.118;2022-08-01T11:54:56;29.80;99.90
17774;DHT22;9011;33.236;-97.118;2022-08-01T11:57:28;29.60;99.90
17774;DHT22;9011;33.236;-97.118;2022-08-01T11:59:58;29.60;99.90
17774;DHT22;9011;33.236;-97.118;2022-08-01T12:02:27;29.60;99.90
17774;DHT22;9011;33.236;-97.118;2022-08-01T12:04:57;29.60;99.90
17774;DHT22;9011;33.236;-97.118;2022-08-01T12:07:28;29.70;99.90
17774;DHT22;9011;33.236;-97.118;2022-08-01T12:10:02;29.80;99.90
17774;DHT22;9011;33.236;-97.118;2022-08-01T12:12:34;29.70;99.90
17774;DHT22;9011;33.236;-97.118;2022-08-01T12:15:05;29.70;99.90
17774;DHT22;9011;33.236;-97.118;2022-08-01T12:17:35;29.70;99.90
17774;DHT22;9011;33.236;-97.118;2022-08-01T12:20:06;29.80;99.90
17774;DHT22;9011;33.236;-97.118;2022-08-01T12:22:36;29.70;99.90
17774;DHT22;9011;33.236;-97.118;2022-08-01T12:25:08;29.70;99.90
17774;DHT22;9011;33.236;-97.118;2022-08-01T12:27:39;29.80;99.90
17774;DHT22;9011;33.236;-97.118;2022-08-01T12:30:09;29.90;99.90
17774;DHT22;9011;33.236;-97.118;2022-08-01T12:32:38;29.90;99.90
17774;DHT22;9011;33.236;-97.118;2022-08-01T12:35:09;30.00;99.90
17774;DHT22;9011;33.236;-97.118;2022-08-01T12:37:38;30.00;99.90
17774;DHT22;9011;33.236;-97.118;2022-08-01T12:40:11;29.80;99.90
17774;DHT22;9011;33.236;-97.118;2022-08-01T12:42:43;29.90;99.90
17774;DHT22;9011;33.236;-97.118;2022-08-01T12:45:14;29.90;99.90
17774;DHT22;9011;33.236;-97.118;2022-08-01T12:47:43;30.00;99.90
17774;DHT22;9011;33.236;-97.118;2022-08-01T12:50:13;30.00;99.90
17774;DHT22;9011;33.236;-97.118;2022-08-01T12:52:42;30.00;99.90
17774;DHT22;9011;33.236;-97.118;2022-08-01T12:55:12;29.90;99.90
17774;DHT22;9011;33.236;-97.118;2022-08-01T12:57:44;29.90;99.90
17774;DHT22;9011;33.236;-97.118;2022-08-01T13:00:21;30.00;99.90
17774;DHT22;9011;33.236;-97.118;2022-08-01T13:02:50;30.10;99.90
17774;DHT22;9011;33.236;-97.118;2022-08-01T13:05:18;30.00;99.90
17774;DHT22;9011;33.236;-97.118;2022-08-01T13:07:49;29.70;99.90
17774;DHT22;9011;33.236;-97.118;2022-08-01T13:10:26;29.80;99.90
17774;DHT22;9011;33.236;-97.118;2022-08-01T13:12:57;29.90;99.90
17774;DHT22;9011;33.236;-97.118;2022-08-01T13:15:28;30.00;99.90
17774;DHT22;9011;33.236;-97.118;2022-08-01T13:18:01;30.00;99.90
17774;DHT22;9011;33.236;-97.118;2022-08-01T13:20:32;30.10;99.90
17774;DHT22;9011;33.236;-97.118;2022-08-01T13:23:15;30.10;99.90
17774;DHT22;9011;33.236;-97.118;2022-08-01T13:25:52;30.10;99.90
17774;DHT22;9011;33.236;-97.118;2022-08-01T13:28:24;30.10;99.90
17774;DHT22;9011;33.236;-97.118;2022-08-01T13:30:58;30.30;99.90
17774;DHT22;9011;33.236;-97.118;2022-08-01T13:33:38;30.40;99.90
17774;DHT22;9011;33.236;-97.118;2022-08-01T13:36:08;30.50;99.90
17774;DHT22;9011;33.236;-97.118;2022-08-01T13:38:36;30.50;99.90
17774;DHT22;9011;33.236;-97.118;2022-08-01T13:41:21;30.50;99.90
17774;DHT22;9011;33.236;-97.118;2022-08-01T13:43:51;30.60;99.90
17774;DHT22;9011;33.236;-97.118;2022-08-01T13:46:21;30.50;99.90
17774;DHT22;9011;33.236;-97.118;2022-08-01T13:48:49;30.50;99.90
17774;DHT22;9011;33.236;-97.118;2022-08-01T13:51:17;30.60;99.90
17774;DHT22;9011;33.236;-97.118;2022-08-01T13:53:46;30.90;99.90
17774;DHT22;9011;33.236;-97.118;2022-08-01T13:56:14;31.00;99.90
17774;DHT22;9011;33.236;-97.118;2022-08-01T13:58:43;31.20;99.90
17774;DHT22;9011;33.236;-97.118;2022-08-01T14:01:13;31.30;99.90
17774;DHT22;9011;33.236;-97.118;2022-08-01T14:03:41;31.40;99.90
17774;DHT22;9011;33.236;-97.118;2022-08-01T14:06:10;31.40;99.90
17774;DHT22;9011;33.236;-97.118;2022-08-01T14:08:38;31.50;99.90
17774;DHT22;9011;33.236;-97.118;2022-08-01T14:11:06;31.60;99.90
17774;DHT22;9011;33.236;-97.118;2022-08-01T14:13:35;31.30;99.90
17774;DHT22;9011;33.236;-97.118;2022-08-01T14:16:05;31.50;99.90
17774;DHT22;9011;33.236;-97.118;2022-08-01T14:18:35;31.20;99.90
17774;DHT22;9011;33.236;-97.118;2022-08-01T14:21:03;31.30;99.90
17774;DHT22;9011;33.236;-97.118;2022-08-01T14:23:31;31.40;99.90
17774;DHT22;9011;33.236;-97.118;2022-08-01T14:26:00;31.30;99.90
17774;DHT22;9011;33.236;-97.118;2022-08-01T14:28:28;30.90;99.90
17774;DHT22;9011;33.236;-97.118;2022-08-01T14:30:57;30.90;99.90
17774;DHT22;9011;33.236;-97.118;2022-08-01T14:33:26;31.00;99.90
17774;DHT22;9011;33.236;-97.118;2022-08-01T14:35:56;31.10;99.90
17774;DHT22;9011;33.236;-97.118;2022-08-01T14:38:24;31.20;99.90
17774;DHT22;9011;33.236;-97.118;2022-08-01T14:40:52;31.00;99.90
17774;DHT22;9011;33.236;-97.118;2022-08-01T14:43:21;31.20;99.90
17774;DHT22;9011;33.236;-97.118;2022-08-01T14:45:49;31.30;99.90
17774;DHT22;9011;33.236;-97.118;2022-08-01T14:48:18;31.40;99.90
17774;DHT22;9011;33.236;-97.118;2022-08-01T14:50:46;31.40;99.90
17774;DHT22;9011;33.236;-97.118;2022-08-01T14:53:16;31.40;99.90
17774;DHT22;9011;33.236;-97.118;2022-08-01T14:55:45;31.30;99.90
17774;DHT22;9011;33.236;-97.118;2022-08-01T14:58:13;31.40;99.90
17774;DHT22;9011;33.236;-97.118;2022-08-01T15:00:42;31.40;99.90
17774;DHT22;9011;33.236;-97.118;2022-08-01T15:03:10;31.50;99.90
17774;DHT22;9011;33.236;-97.118;2022-08-01T15:05:39;31.70;99.90
17774;DHT22;9011;33.236;-97.118;2022-08-01T15:08:08;31.80;99.90
17774;DHT22;9011;33.236;-97.118;2022-08-01T15:10:38;31.80;99.90
17774;DHT22;9011;33.236;-97.118;2022-08-01T15:13:06;31.80;99.90
17774;DHT22;9011;33.236;-97.118;2022-08-01T15:15:34;31.80;99.90
17774;DHT22;9011;33.236;-97.118;2022-08-01T15:18:03;32.10;99.90
17774;DHT22;9011;33.236;-97.118;2022-08-01T15:20:31;31.90;99.90
17774;DHT22;9011;33.236;-97.118;2022-08-01T15:23:00;32.10;99.90
17774;DHT22;9011;33.236;-97.118;2022-08-01T15:25:28;31.80;99.90
17774;DHT22;9011;33.236;-97.118;2022-08-01T15:27:58;32.10;99.90
17774;DHT22;9011;33.236;-97.118;2022-08-01T15:30:26;32.20;99.90
17774;DHT22;9011;33.236;-97.118;2022-08-01T15:32:55;32.50;99.90
17774;DHT22;9011;33.236;-97.118;2022-08-01T15:35:23;32.90;99.90
17774;DHT22;9011;33.236;-97.118;2022-08-01T15:37:51;33.10;99.90
17774;DHT22;9011;33.236;-97.118;2022-08-01T15:40:19;33.50;99.90
17774;DHT22;9011;33.236;-97.118;2022-08-01T15:42:48;33.70;99.90
17774;DHT22;9011;33.236;-97.118;2022-08-01T15:45:18;33.90;99.90